sensor_id;sensor_type;location;lat;lon;timestamp;temperature;humidity
792;DHT22;379;49.022;12.148;2023-02-19T00:00:09;9.10;99.90
792;DHT22;379;49.022;12.148;2023-02-19T00:02:36;9.10;99.90
792;DHT22;379;49.022;12.148;2023-02-19T00:05:05;9.20;99.90
792;DHT22;379;49.022;12.148;2023-02-19T00:07:31;9.10;99.90
792;DHT22;379;49.022;12.148;2023-02-19T00:09:58;9.10;99.90
792;DHT22;379;49.022;12.148;2023-02-19T00:12:25;9.10;99.90
792;DHT22;379;49.022;12.148;2023-02-19T00:14:51;9.10;99.90
792;DHT22;379;49.022;12.148;2023-02-19T00:17:19;9.00;99.90
792;DHT22;379;49.022;12.148;2023-02-19T00:19:46;9.00;99.90
792;DHT22;379;49.022;12.148;2023-02-19T00:22:14;9.00;99.90
792;DHT22;379;49.022;12.148;2023-02-19T00:24:41;9.00;99.90
792;DHT22;379;49.022;12.148;2023-02-19T00:27:07;9.00;99.90
792;DHT22;379;49.022;12.148;2023-02-19T00:29:34;8.90;99.90
792;DHT22;379;49.022;12.148;2023-02-19T00:32:01;8.80;99.90
792;DHT22;379;49.022;12.148;2023-02-19T00:34:28;8.70;99.90
792;DHT22;379;49.022;12.148;2023-02-19T00:36:54;8.60;99.90
792;DHT22;379;49.022;12.148;2023-02-19T00:39:22;8.50;99.90
792;DHT22;379;49.022;12.148;2023-02-19T00:41:49;8.40;99.90
792;DHT22;379;49.022;12.148;2023-02-19T00:44:16;8.30;99.90
792;DHT22;379;49.022;12.148;2023-02-19T00:46:44;8.30;99.90
792;DHT22;379;49.022;12.148;2023-02-19T00:49:15;8.20;99.90
792;DHT22;379;49.022;12.148;2023-02-19T00:51:41;8.20;99.90
792;DHT22;379;49.022;12.148;2023-02-19T00:54:09;8.20;99.90
792;DHT22;379;49.022;12.148;2023-02-19T00:56:37;8.10;99.90
792;DHT22;379;49.022;12.148;2023-02-19T00:59:04;8.10;99.90
792;DHT22;379;49.022;12.148;2023-02-19T01:01:31;8.10;99.90
792;DHT22;379;49.022;12.148;2023-02-19T01:03:58;8.10;99.90
792;DHT22;379;49.022;12.148;2023-02-19T01:06:24;8.00;99.90
792;DHT22;379;49.022;12.148;2023-02-19T01:08:54;8.00;99.90
792;DHT22;379;49.022;12.148;2023-02-19T01:11:21;8.00;99.90
792;DHT22;379;49.022;12.148;2023-02-19T01:13:49;8.00;99.90
792;DHT22;379;49.022;12.148;2023-02-19T01:16:18;8.00;99.90
792;DHT22;379;49.022;12.148;2023-02-19T01:18:46;8.00;99.90
792;DHT22;379;49.022;12.148;2023-02-19T01:21:14;8.00;99.90
792;DHT22;379;49.022;12.148;2023-02-19T01:23:41;8.00;99.90
792;DHT22;379;49.022;12.148;2023-02-19T01:26:11;8.00;99.90
792;DHT22;379;49.022;12.148;2023-02-19T01:28:38;8.00;99.90
792;DHT22;379;49.022;12.148;2023-02-19T01:31:08;8.00;99.90
792;DHT22;379;49.022;12.148;2023-02-19T01:33:36;8.10;99.90
792;DHT22;379;49.022;12.148;2023-02-19T01:36:03;8.00;99.90
792;DHT22;379;49.022;12.148;2023-02-19T01:38:30;8.10;99.90
792;DHT22;379;49.022;12.148;2023-02-19T01:40:58;8.00;99.90
792;DHT22;379;49.022;12.148;2023-02-19T01:43:26;8.00;99.90
792;DHT22;379;49.022;12.148;2023-02-19T01:45:53;8.00;99.90
792;DHT22;379;49.022;12.148;2023-02-19T01:48:24;8.00;99.90
792;DHT22;379;49.022;12.148;2023-02-19T01:50:53;8.00;99.90
792;DHT22;379;49.022;12.148;2023-02-19T01:53:24;8.00;99.90
792;DHT22;379;49.022;12.148;2023-02-19T01:55:54;8.00;99.90
792;DHT22;379;49.022;12.148;2023-02-19T01:58:22;8.00;99.90
792;DHT22;379;49.022;12.148;2023-02-19T02:00:49;8.00;99.90
792;DHT22;379;49.022;12.148;2023-02-19T02:03:17;8.00;99.90
792;DHT22;379;49.022;12.148;2023-02-19T02:05:51;8.00;99.90
792;DHT22;379;49.022;12.148;2023-02-19T02:08:19;8.00;99.90
792;DHT22;379;49.022;12.148;2023-02-19T02:11:04;8.10;99.90
792;DHT22;379;49.022;12.148;2023-02-19T02:13:32;8.00;99.90
792;DHT22;379;49.022;12.148;2023-02-19T02:16:08;8.00;99.90
792;DHT22;379;49.022;12.148;2023-02-19T02:18:44;8.00;99.90
792;DHT22;379;49.022;12.148;2023-02-19T02:21:34;8.00;99.90
792;DHT22;379;49.022;12.148;2023-02-19T02:24:11;8.00;99.90
792;DHT22;379;49.022;12.148;2023-02-19T02:26:57;8.00;99.90
792;DHT22;379;49.022;12.148;2023-02-19T02:32:33;8.00;99.90
792;DHT22;379;49.022;12.148;2023-02-19T02:35:06;8.00;99.90
792;DHT22;379;49.022;12.148;2023-02-19T02:37:35;8.00;99.90
792;DHT22;379;49.022;12.148;2023-02-19T02:40:03;8.00;99.90
792;DHT22;379;49.022;12.148;2023-02-19T02:42:32;8.00;99.90
792;DHT22;379;49.022;12.148;2023-02-19T02:45:24;8.00;99.90
792;DHT22;379;49.022;12.148;2023-02-19T02:48:35;8.00;99.90
792;DHT22;379;49.022;12.148;2023-02-19T02:51:11;8.00;99.90
792;DHT22;379;49.022;12.148;2023-02-19T02:53:42;8.00;99.90
792;DHT22;379;49.022;12.148;2023-02-19T02:56:28;8.00;99.90
792;DHT22;379;49.022;12.148;2023-02-19T02:58:57;8.00;99.90
792;DHT22;379;49.022;12.148;2023-02-19T03:01:28;8.00;99.90
792;DHT22;379;49.022;12.148;2023-02-19T03:04:20;8.00;99.90
792;DHT22;379;49.022;12.148;2023-02-19T03:06:49;8.00;99.90
792;DHT22;379;49.022;12.148;2023-02-19T03:09:19;8.00;99.90
792;DHT22;379;49.022;12.148;2023-02-19T03:11:57;8.00;99.90
792;DHT22;379;49.022;12.148;2023-02-19T03:14:46;8.00;99.90
792;DHT22;379;49.022;12.148;2023-02-19T03:17:35;8.00;99.90
792;DHT22;379;49.022;12.148;2023-02-19T03:20:40;8.10;99.90
792;DHT22;379;49.022;12.148;2023-02-19T03:23:10;8.10;99.90
792;DHT22;379;49.022;12.148;2023-02-19T03:25:38;8.10;99.90
792;DHT22;379;49.022;12.148;2023-02-19T03:28:34;8.10;99.90
792;DHT22;379;49.022;12.148;2023-02-19T03:31:23;8.10;99.90
792;DHT22;379;49.022;12.148;2023-02-19T03:33:55;8.10;99.90
792;DHT22;379;49.022;12.148;2023-02-19T03:36:27;8.10;99.90
792;DHT22;379;49.022;12.148;2023-02-19T03:38:58;8.10;99.90
792;DHT22;379;49.022;12.148;2023-02-19T03:41:30;8.10;99.90
792;DHT22;379;49.022;12.148;2023-02-19T03:44:07;8.10;99.90
792;DHT22;379;49.022;12.148;2023-02-19T03:46:41;8.10;99.90
792;DHT22;379;49.022;12.148;2023-02-19T03:49:14;8.10;99.90
792;DHT22;379;49.022;12.148;2023-02-19T03:51:51;8.10;99.90
792;DHT22;379;49.022;12.148;2023-02-19T03:54:21;8.10;99.90
792;DHT22;379;49.022;12.148;2023-02-19T03:56:51;8.10;99.90
792;DHT22;379;49.022;12.148;2023-02-19T03:59:23;8.10;99.90
792;DHT22;379;49.022;12.148;2023-02-19T04:01:57;8.10;99.90
792;DHT22;379;49.022;12.148;2023-02-19T04:04:28;8.10;99.90
792;DHT22;379;49.022;12.148;2023-02-19T04:06:58;8.10;99.90
792;DHT22;379;49.022;12.148;2023-02-19T04:09:28;8.10;99.90
792;DHT22;379;49.022;12.148;2023-02-19T04:11:57;8.10;99.90
792;DHT22;379;49.022;12.148;2023-02-19T04:14:29;8.10;99.90
792;DHT22;379;49.022;12.148;2023-02-19T04:17:00;8.10;99.90
792;DHT22;379;49.022;12.148;2023-02-19T04:19:28;8.10;99.90
792;DHT22;379;49.022;12.148;2023-02-19T04:21:58;8.10;99.90
792;DHT22;379;49.022;12.148;2023-02-19T04:24:28;8.10;99.90
792;DHT22;379;49.022;12.148;2023-02-19T04:26:57;8.10;99.90
792;DHT22;379;49.022;12.148;2023-02-19T04:29:24;8.10;99.90
792;DHT22;379;49.022;12.148;2023-02-19T04:31:51;8.10;99.90
792;DHT22;379;49.022;12.148;2023-02-19T04:34:18;8.10;99.90
792;DHT22;379;49.022;12.148;2023-02-19T04:36:44;8.10;99.90
792;DHT22;379;49.022;12.148;2023-02-19T04:39:12;8.10;99.90
792;DHT22;379;49.022;12.148;2023-02-19T04:41:39;8.10;99.90
792;DHT22;379;49.022;12.148;2023-02-19T04:44:06;8.10;99.90
792;DHT22;379;49.022;12.148;2023-02-19T04:46:32;8.10;99.90
792;DHT22;379;49.022;12.148;2023-02-19T04:48:59;8.10;99.90
792;DHT22;379;49.022;12.148;2023-02-19T04:51:26;8.10;99.90
792;DHT22;379;49.022;12.148;2023-02-19T04:53:53;8.10;99.90
792;DHT22;379;49.022;12.148;2023-02-19T04:56:22;8.10;99.90
792;DHT22;379;49.022;12.148;2023-02-19T04:58:48;8.10;99.90
792;DHT22;379;49.022;12.148;2023-02-19T05:01:15;8.00;99.90
792;DHT22;379;49.022;12.148;2023-02-19T05:03:42;8.00;99.90
792;DHT22;379;49.022;12.148;2023-02-19T05:06:11;8.10;99.90
792;DHT22;379;49.022;12.148;2023-02-19T05:08:39;8.00;99.90
792;DHT22;379;49.022;12.148;2023-02-19T05:11:07;8.00;99.90
792;DHT22;379;49.022;12.148;2023-02-19T05:13:36;8.00;99.90
792;DHT22;379;49.022;12.148;2023-02-19T05:16:08;8.00;99.90
792;DHT22;379;49.022;12.148;2023-02-19T05:18:35;8.00;99.90
792;DHT22;379;49.022;12.148;2023-02-19T05:21:02;8.00;99.90
792;DHT22;379;49.022;12.148;2023-02-19T05:23:29;8.00;99.90
792;DHT22;379;49.022;12.148;2023-02-19T05:25:55;8.00;99.90
792;DHT22;379;49.022;12.148;2023-02-19T05:28:22;8.00;99.90
792;DHT22;379;49.022;12.148;2023-02-19T05:30:55;8.00;99.90
792;DHT22;379;49.022;12.148;2023-02-19T05:33:24;8.00;99.90
792;DHT22;379;49.022;12.148;2023-02-19T05:35:52;8.00;99.90
792;DHT22;379;49.022;12.148;2023-02-19T05:38:21;7.90;99.90
792;DHT22;379;49.022;12.148;2023-02-19T05:40:48;7.90;99.90
792;DHT22;379;49.022;12.148;2023-02-19T05:43:15;7.90;99.90
792;DHT22;379;49.022;12.148;2023-02-19T05:45:43;7.90;99.90
792;DHT22;379;49.022;12.148;2023-02-19T05:48:11;7.80;99.90
792;DHT22;379;49.022;12.148;2023-02-19T05:50:38;7.80;99.90
792;DHT22;379;49.022;12.148;2023-02-19T05:53:04;7.80;99.90
792;DHT22;379;49.022;12.148;2023-02-19T05:55:34;7.80;99.90
792;DHT22;379;49.022;12.148;2023-02-19T05:58:01;7.80;99.90
792;DHT22;379;49.022;12.148;2023-02-19T06:00:28;7.80;99.90
792;DHT22;379;49.022;12.148;2023-02-19T06:02:55;7.80;99.90
792;DHT22;379;49.022;12.148;2023-02-19T06:05:24;7.70;99.90
792;DHT22;379;49.022;12.148;2023-02-19T06:07:50;7.70;99.90
792;DHT22;379;49.022;12.148;2023-02-19T06:10:17;7.60;99.90
792;DHT22;379;49.022;12.148;2023-02-19T06:12:44;7.60;99.90
792;DHT22;379;49.022;12.148;2023-02-19T06:15:11;7.60;99.90
792;DHT22;379;49.022;12.148;2023-02-19T06:17:37;7.70;99.90
792;DHT22;379;49.022;12.148;2023-02-19T06:20:05;7.70;99.90
792;DHT22;379;49.022;12.148;2023-02-19T06:22:33;7.70;99.90
792;DHT22;379;49.022;12.148;2023-02-19T06:24:59;7.70;99.90
792;DHT22;379;49.022;12.148;2023-02-19T06:27:26;7.70;99.90
792;DHT22;379;49.022;12.148;2023-02-19T06:29:53;7.80;99.90
792;DHT22;379;49.022;12.148;2023-02-19T06:32:20;7.80;99.90
792;DHT22;379;49.022;12.148;2023-02-19T06:34:47;7.80;99.90
792;DHT22;379;49.022;12.148;2023-02-19T06:37:14;7.80;99.90
792;DHT22;379;49.022;12.148;2023-02-19T06:39:42;7.90;99.90
792;DHT22;379;49.022;12.148;2023-02-19T06:42:09;7.80;99.90
792;DHT22;379;49.022;12.148;2023-02-19T06:44:36;7.90;99.90
792;DHT22;379;49.022;12.148;2023-02-19T06:47:02;7.90;99.90
792;DHT22;379;49.022;12.148;2023-02-19T06:49:29;8.00;99.90
792;DHT22;379;49.022;12.148;2023-02-19T06:51:56;8.00;99.90
792;DHT22;379;49.022;12.148;2023-02-19T06:54:23;8.00;99.90
792;DHT22;379;49.022;12.148;2023-02-19T06:56:52;8.00;99.90
792;DHT22;379;49.022;12.148;2023-02-19T06:59:21;8.00;99.90
792;DHT22;379;49.022;12.148;2023-02-19T07:01:48;8.00;99.90
792;DHT22;379;49.022;12.148;2023-02-19T07:04:15;8.10;99.90
792;DHT22;379;49.022;12.148;2023-02-19T07:06:42;8.10;99.90
792;DHT22;379;49.022;12.148;2023-02-19T07:09:09;8.10;99.90
792;DHT22;379;49.022;12.148;2023-02-19T07:11:37;8.10;99.90
792;DHT22;379;49.022;12.148;2023-02-19T07:14:07;8.10;99.90
792;DHT22;379;49.022;12.148;2023-02-19T07:16:34;8.20;99.90
792;DHT22;379;49.022;12.148;2023-02-19T07:19:01;8.20;99.90
792;DHT22;379;49.022;12.148;2023-02-19T07:21:29;8.20;99.90
792;DHT22;379;49.022;12.148;2023-02-19T07:23:56;8.20;99.90
792;DHT22;379;49.022;12.148;2023-02-19T07:26:24;8.30;99.90
792;DHT22;379;49.022;12.148;2023-02-19T07:28:51;8.40;99.90
792;DHT22;379;49.022;12.148;2023-02-19T07:31:21;8.40;99.90
792;DHT22;379;49.022;12.148;2023-02-19T07:33:48;8.40;99.90
792;DHT22;379;49.022;12.148;2023-02-19T07:36:17;8.40;99.90
792;DHT22;379;49.022;12.148;2023-02-19T07:38:45;8.40;99.90
792;DHT22;379;49.022;12.148;2023-02-19T07:41:12;8.40;99.90
792;DHT22;379;49.022;12.148;2023-02-19T07:43:39;8.40;99.90
792;DHT22;379;49.022;12.148;2023-02-19T07:46:07;8.40;99.90
792;DHT22;379;49.022;12.148;2023-02-19T07:48:36;8.50;99.90
792;DHT22;379;49.022;12.148;2023-02-19T07:51:04;8.60;99.90
792;DHT22;379;49.022;12.148;2023-02-19T07:53:33;8.60;99.90
792;DHT22;379;49.022;12.148;2023-02-19T07:56:05;8.70;99.90
792;DHT22;379;49.022;12.148;2023-02-19T07:58:34;8.80;99.90
792;DHT22;379;49.022;12.148;2023-02-19T08:01:08;8.90;99.90
792;DHT22;379;49.022;12.148;2023-02-19T08:03:37;8.90;99.90
792;DHT22;379;49.022;12.148;2023-02-19T08:06:03;8.90;99.90
792;DHT22;379;49.022;12.148;2023-02-19T08:08:30;8.90;99.90
792;DHT22;379;49.022;12.148;2023-02-19T08:11:01;8.90;99.90
792;DHT22;379;49.022;12.148;2023-02-19T08:13:47;9.00;99.90
792;DHT22;379;49.022;12.148;2023-02-19T08:16:15;9.10;99.90
792;DHT22;379;49.022;12.148;2023-02-19T08:18:46;9.20;99.90
792;DHT22;379;49.022;12.148;2023-02-19T08:21:14;9.30;99.90
792;DHT22;379;49.022;12.148;2023-02-19T08:23:45;9.40;99.90
792;DHT22;379;49.022;12.148;2023-02-19T08:26:12;9.60;99.90
792;DHT22;379;49.022;12.148;2023-02-19T08:28:39;9.80;99.90
792;DHT22;379;49.022;12.148;2023-02-19T08:31:07;9.90;99.90
792;DHT22;379;49.022;12.148;2023-02-19T08:33:36;9.90;99.90
792;DHT22;379;49.022;12.148;2023-02-19T08:36:06;9.90;99.90
792;DHT22;379;49.022;12.148;2023-02-19T08:38:34;9.80;99.90
792;DHT22;379;49.022;12.148;2023-02-19T08:41:03;9.80;99.90
792;DHT22;379;49.022;12.148;2023-02-19T08:43:31;9.70;99.90
792;DHT22;379;49.022;12.148;2023-02-19T08:45:57;9.60;99.90
792;DHT22;379;49.022;12.148;2023-02-19T08:48:24;9.60;99.90
792;DHT22;379;49.022;12.148;2023-02-19T08:50:55;9.70;99.90
792;DHT22;379;49.022;12.148;2023-02-19T08:53:24;9.80;99.90
792;DHT22;379;49.022;12.148;2023-02-19T08:55:51;9.80;99.90
792;DHT22;379;49.022;12.148;2023-02-19T08:58:18;9.90;99.90
792;DHT22;379;49.022;12.148;2023-02-19T09:00:45;10.00;99.90
792;DHT22;379;49.022;12.148;2023-02-19T09:03:11;10.00;99.90
792;DHT22;379;49.022;12.148;2023-02-19T09:05:39;10.00;99.90
792;DHT22;379;49.022;12.148;2023-02-19T09:08:07;10.00;99.90
792;DHT22;379;49.022;12.148;2023-02-19T09:10:35;9.90;99.90
792;DHT22;379;49.022;12.148;2023-02-19T09:13:02;9.80;99.90
792;DHT22;379;49.022;12.148;2023-02-19T09:15:28;9.70;99.90
792;DHT22;379;49.022;12.148;2023-02-19T09:17:55;9.70;99.90
792;DHT22;379;49.022;12.148;2023-02-19T09:20:22;9.70;99.90
792;DHT22;379;49.022;12.148;2023-02-19T09:22:49;9.70;99.90
792;DHT22;379;49.022;12.148;2023-02-19T09:25:16;9.60;99.90
792;DHT22;379;49.022;12.148;2023-02-19T09:27:44;9.60;99.90
792;DHT22;379;49.022;12.148;2023-02-19T09:30:11;9.70;99.90
792;DHT22;379;49.022;12.148;2023-02-19T09:32:38;9.80;99.90
792;DHT22;379;49.022;12.148;2023-02-19T09:35:05;9.80;99.90
792;DHT22;379;49.022;12.148;2023-02-19T09:37:32;9.90;99.90
792;DHT22;379;49.022;12.148;2023-02-19T09:39:59;9.90;99.90
792;DHT22;379;49.022;12.148;2023-02-19T09:42:27;10.00;99.90
792;DHT22;379;49.022;12.148;2023-02-19T09:44:57;10.00;99.90
792;DHT22;379;49.022;12.148;2023-02-19T09:47:26;9.90;99.90
792;DHT22;379;49.022;12.148;2023-02-19T09:49:55;9.80;99.90
792;DHT22;379;49.022;12.148;2023-02-19T09:52:30;9.70;99.90
792;DHT22;379;49.022;12.148;2023-02-19T09:55:00;9.60;99.90
792;DHT22;379;49.022;12.148;2023-02-19T09:57:30;9.60;99.90
792;DHT22;379;49.022;12.148;2023-02-19T10:00:03;9.60;99.90
792;DHT22;379;49.022;12.148;2023-02-19T10:02:30;9.50;99.90
792;DHT22;379;49.022;12.148;2023-02-19T10:04:57;9.50;99.90
792;DHT22;379;49.022;12.148;2023-02-19T10:07:34;9.60;99.90
792;DHT22;379;49.022;12.148;2023-02-19T10:10:17;9.70;99.90
792;DHT22;379;49.022;12.148;2023-02-19T10:12:47;9.80;99.90
792;DHT22;379;49.022;12.148;2023-02-19T10:15:19;10.00;99.90
792;DHT22;379;49.022;12.148;2023-02-19T10:17:49;10.10;99.90
792;DHT22;379;49.022;12.148;2023-02-19T10:20:17;10.20;99.90
792;DHT22;379;49.022;12.148;2023-02-19T10:22:46;10.30;99.90
792;DHT22;379;49.022;12.148;2023-02-19T10:25:14;10.30;99.90
792;DHT22;379;49.022;12.148;2023-02-19T10:27:42;10.40;99.90
792;DHT22;379;49.022;12.148;2023-02-19T10:30:16;10.50;99.90
792;DHT22;379;49.022;12.148;2023-02-19T10:32:58;10.60;99.90
792;DHT22;379;49.022;12.148;2023-02-19T10:35:25;10.60;99.90
792;DHT22;379;49.022;12.148;2023-02-19T10:37:52;10.60;99.90
792;DHT22;379;49.022;12.148;2023-02-19T10:40:20;10.70;99.90
792;DHT22;379;49.022;12.148;2023-02-19T10:42:49;10.60;99.90
792;DHT22;379;49.022;12.148;2023-02-19T10:45:20;10.60;99.60
792;DHT22;379;49.022;12.148;2023-02-19T10:47:48;10.50;99.90
792;DHT22;379;49.022;12.148;2023-02-19T10:50:26;10.50;99.90
792;DHT22;379;49.022;12.148;2023-02-19T10:52:54;10.50;99.80
792;DHT22;379;49.022;12.148;2023-02-19T10:55:27;10.40;99.90
792;DHT22;379;49.022;12.148;2023-02-19T10:57:54;10.30;99.70
792;DHT22;379;49.022;12.148;2023-02-19T11:00:24;10.20;99.40
792;DHT22;379;49.022;12.148;2023-02-19T11:03:12;10.10;99.40
792;DHT22;379;49.022;12.148;2023-02-19T11:05:39;10.00;99.70
792;DHT22;379;49.022;12.148;2023-02-19T11:08:20;9.90;99.90
792;DHT22;379;49.022;12.148;2023-02-19T11:10:48;9.80;99.90
792;DHT22;379;49.022;12.148;2023-02-19T11:13:17;9.80;99.90
792;DHT22;379;49.022;12.148;2023-02-19T11:15:51;9.80;99.90
792;DHT22;379;49.022;12.148;2023-02-19T11:18:21;9.80;99.90
792;DHT22;379;49.022;12.148;2023-02-19T11:20:51;9.90;99.90
792;DHT22;379;49.022;12.148;2023-02-19T11:23:22;9.90;99.90
792;DHT22;379;49.022;12.148;2023-02-19T11:25:51;10.00;99.90
792;DHT22;379;49.022;12.148;2023-02-19T11:28:27;10.00;99.90
792;DHT22;379;49.022;12.148;2023-02-19T11:31:13;10.10;99.60
792;DHT22;379;49.022;12.148;2023-02-19T11:33:44;10.00;99.60
792;DHT22;379;49.022;12.148;2023-02-19T11:36:32;9.90;99.90
792;DHT22;379;49.022;12.148;2023-02-19T11:39:16;9.90;99.70
792;DHT22;379;49.022;12.148;2023-02-19T11:41:57;9.80;99.40
792;DHT22;379;49.022;12.148;2023-02-19T11:44:34;9.80;99.50
792;DHT22;379;49.022;12.148;2023-02-19T11:47:30;9.70;99.10
792;DHT22;379;49.022;12.148;2023-02-19T11:50:04;9.70;99.20
792;DHT22;379;49.022;12.148;2023-02-19T11:52:35;9.70;99.60
792;DHT22;379;49.022;12.148;2023-02-19T11:55:12;9.60;99.80
792;DHT22;379;49.022;12.148;2023-02-19T11:57:44;9.60;99.90
792;DHT22;379;49.022;12.148;2023-02-19T12:00:24;9.70;99.40
792;DHT22;379;49.022;12.148;2023-02-19T12:03:27;9.80;98.80
792;DHT22;379;49.022;12.148;2023-02-19T12:06:07;10.00;98.60
792;DHT22;379;49.022;12.148;2023-02-19T12:09:02;10.30;97.80
792;DHT22;379;49.022;12.148;2023-02-19T12:11:48;10.40;98.00
792;DHT22;379;49.022;12.148;2023-02-19T12:14:39;10.30;98.20
792;DHT22;379;49.022;12.148;2023-02-19T12:17:14;10.20;97.50
792;DHT22;379;49.022;12.148;2023-02-19T12:19:54;10.20;98.10
792;DHT22;379;49.022;12.148;2023-02-19T12:22:29;10.30;97.40
792;DHT22;379;49.022;12.148;2023-02-19T12:28:17;10.80;97.10
792;DHT22;379;49.022;12.148;2023-02-19T12:31:12;11.20;96.00
792;DHT22;379;49.022;12.148;2023-02-19T12:36:44;11.90;93.50
792;DHT22;379;49.022;12.148;2023-02-19T12:39:21;11.80;92.00
792;DHT22;379;49.022;12.148;2023-02-19T12:41:59;11.60;92.20
792;DHT22;379;49.022;12.148;2023-02-19T12:44:38;11.70;92.00
792;DHT22;379;49.022;12.148;2023-02-19T12:47:15;12.00;92.30
792;DHT22;379;49.022;12.148;2023-02-19T12:49:46;12.30;90.80
792;DHT22;379;49.022;12.148;2023-02-19T12:52:21;12.40;90.20
792;DHT22;379;49.022;12.148;2023-02-19T12:54:51;12.50;89.80
792;DHT22;379;49.022;12.148;2023-02-19T12:57:25;12.50;89.20
792;DHT22;379;49.022;12.148;2023-02-19T12:59:58;12.30;87.40
792;DHT22;379;49.022;12.148;2023-02-19T13:02:33;12.20;88.00
792;DHT22;379;49.022;12.148;2023-02-19T13:05:09;11.70;88.20
792;DHT22;379;49.022;12.148;2023-02-19T13:07:45;11.10;91.20
792;DHT22;379;49.022;12.148;2023-02-19T13:10:25;10.60;92.60
792;DHT22;379;49.022;12.148;2023-02-19T13:12:54;10.10;94.00
792;DHT22;379;49.022;12.148;2023-02-19T13:15:26;9.80;95.90
792;DHT22;379;49.022;12.148;2023-02-19T13:17:55;9.80;97.20
792;DHT22;379;49.022;12.148;2023-02-19T13:20:26;9.90;97.60
792;DHT22;379;49.022;12.148;2023-02-19T13:23:01;10.10;97.60
792;DHT22;379;49.022;12.148;2023-02-19T13:25:59;10.30;97.70
792;DHT22;379;49.022;12.148;2023-02-19T13:28:42;10.60;97.50
792;DHT22;379;49.022;12.148;2023-02-19T13:31:36;11.10;96.50
792;DHT22;379;49.022;12.148;2023-02-19T13:34:12;11.30;95.10
792;DHT22;379;49.022;12.148;2023-02-19T13:36:44;11.50;94.50
792;DHT22;379;49.022;12.148;2023-02-19T13:39:15;11.60;93.50
792;DHT22;379;49.022;12.148;2023-02-19T13:41:49;11.60;93.10
792;DHT22;379;49.022;12.148;2023-02-19T13:44:17;11.50;93.20
792;DHT22;379;49.022;12.148;2023-02-19T13:46:46;11.40;92.90
792;DHT22;379;49.022;12.148;2023-02-19T13:49:39;11.20;92.60
792;DHT22;379;49.022;12.148;2023-02-19T13:52:39;11.10;92.70
792;DHT22;379;49.022;12.148;2023-02-19T14:04:40;11.70;92.10
792;DHT22;379;49.022;12.148;2023-02-19T14:07:37;12.00;90.90
792;DHT22;379;49.022;12.148;2023-02-19T14:12:55;12.20;88.30
792;DHT22;379;49.022;12.148;2023-02-19T14:15:40;12.10;86.80
792;DHT22;379;49.022;12.148;2023-02-19T14:18:41;12.00;88.30
792;DHT22;379;49.022;12.148;2023-02-19T14:21:15;11.80;87.00
792;DHT22;379;49.022;12.148;2023-02-19T14:23:46;11.70;86.60
792;DHT22;379;49.022;12.148;2023-02-19T14:26:17;11.60;86.50
792;DHT22;379;49.022;12.148;2023-02-19T14:28:46;11.60;86.80
792;DHT22;379;49.022;12.148;2023-02-19T14:31:18;11.80;87.20
792;DHT22;379;49.022;12.148;2023-02-19T14:33:49;11.90;86.10
792;DHT22;379;49.022;12.148;2023-02-19T14:36:29;12.00;85.40
792;DHT22;379;49.022;12.148;2023-02-19T14:38:59;11.90;86.10
792;DHT22;379;49.022;12.148;2023-02-19T14:41:30;11.80;85.80
792;DHT22;379;49.022;12.148;2023-02-19T14:43:59;11.60;85.80
792;DHT22;379;49.022;12.148;2023-02-19T14:46:29;11.40;84.90
792;DHT22;379;49.022;12.148;2023-02-19T14:49:02;11.30;85.90
792;DHT22;379;49.022;12.148;2023-02-19T14:51:34;11.30;86.40
792;DHT22;379;49.022;12.148;2023-02-19T14:54:08;11.40;87.00
792;DHT22;379;49.022;12.148;2023-02-19T14:56:36;11.20;87.20
792;DHT22;379;49.022;12.148;2023-02-19T14:59:08;11.10;87.10
792;DHT22;379;49.022;12.148;2023-02-19T15:01:53;11.10;88.60
792;DHT22;379;49.022;12.148;2023-02-19T15:04:23;11.00;87.60
792;DHT22;379;49.022;12.148;2023-02-19T15:06:50;10.90;88.40
792;DHT22;379;49.022;12.148;2023-02-19T15:09:19;10.70;89.70
792;DHT22;379;49.022;12.148;2023-02-19T15:11:47;10.40;90.40
792;DHT22;379;49.022;12.148;2023-02-19T15:14:19;10.00;91.70
792;DHT22;379;49.022;12.148;2023-02-19T15:16:47;9.70;93.50
792;DHT22;379;49.022;12.148;2023-02-19T15:19:16;9.60;93.90
792;DHT22;379;49.022;12.148;2023-02-19T15:21:45;9.60;94.00
792;DHT22;379;49.022;12.148;2023-02-19T15:24:16;9.80;94.30
792;DHT22;379;49.022;12.148;2023-02-19T15:26:46;9.80;94.00
792;DHT22;379;49.022;12.148;2023-02-19T15:29:16;9.90;93.60
792;DHT22;379;49.022;12.148;2023-02-19T15:31:44;9.80;93.70
792;DHT22;379;49.022;12.148;2023-02-19T15:34:16;9.80;93.90
792;DHT22;379;49.022;12.148;2023-02-19T15:36:45;9.70;94.00
792;DHT22;379;49.022;12.148;2023-02-19T15:39:18;9.60;94.30
792;DHT22;379;49.022;12.148;2023-02-19T15:41:51;9.40;94.80
792;DHT22;379;49.022;12.148;2023-02-19T15:44:28;9.30;95.60
792;DHT22;379;49.022;12.148;2023-02-19T15:47:01;9.20;95.80
792;DHT22;379;49.022;12.148;2023-02-19T15:49:35;9.10;96.00
792;DHT22;379;49.022;12.148;2023-02-19T15:52:09;9.10;96.60
792;DHT22;379;49.022;12.148;2023-02-19T15:54:44;9.00;97.10
792;DHT22;379;49.022;12.148;2023-02-19T15:57:19;8.90;97.50
792;DHT22;379;49.022;12.148;2023-02-19T15:59:50;8.80;98.20
792;DHT22;379;49.022;12.148;2023-02-19T16:02:19;8.80;98.80
792;DHT22;379;49.022;12.148;2023-02-19T16:04:46;8.70;99.20
792;DHT22;379;49.022;12.148;2023-02-19T16:07:23;8.60;99.40
792;DHT22;379;49.022;12.148;2023-02-19T16:10:15;8.60;99.20
792;DHT22;379;49.022;12.148;2023-02-19T16:12:43;8.50;99.50
792;DHT22;379;49.022;12.148;2023-02-19T16:15:19;8.40;99.30
792;DHT22;379;49.022;12.148;2023-02-19T16:17:46;8.40;99.60
792;DHT22;379;49.022;12.148;2023-02-19T16:20:19;8.30;99.80
792;DHT22;379;49.022;12.148;2023-02-19T16:22:48;8.10;99.90
792;DHT22;379;49.022;12.148;2023-02-19T16:25:28;8.00;99.90
792;DHT22;379;49.022;12.148;2023-02-19T16:27:56;8.00;99.90
792;DHT22;379;49.022;12.148;2023-02-19T16:30:29;8.00;99.90
792;DHT22;379;49.022;12.148;2023-02-19T16:33:18;8.00;99.90
792;DHT22;379;49.022;12.148;2023-02-19T16:35:48;8.00;99.90
792;DHT22;379;49.022;12.148;2023-02-19T16:38:19;8.00;99.90
792;DHT22;379;49.022;12.148;2023-02-19T16:41:05;8.00;99.90
792;DHT22;379;49.022;12.148;2023-02-19T16:43:38;7.90;99.90
792;DHT22;379;49.022;12.148;2023-02-19T16:46:08;7.90;99.90
792;DHT22;379;49.022;12.148;2023-02-19T16:48:36;7.80;99.90
792;DHT22;379;49.022;12.148;2023-02-19T16:51:04;7.70;99.90
792;DHT22;379;49.022;12.148;2023-02-19T16:53:33;7.60;99.90
792;DHT22;379;49.022;12.148;2023-02-19T16:56:00;7.40;99.90
792;DHT22;379;49.022;12.148;2023-02-19T16:58:26;7.30;99.90
792;DHT22;379;49.022;12.148;2023-02-19T17:00:53;7.10;99.90
792;DHT22;379;49.022;12.148;2023-02-19T17:03:22;7.10;99.90
792;DHT22;379;49.022;12.148;2023-02-19T17:05:49;7.00;99.90
792;DHT22;379;49.022;12.148;2023-02-19T17:08:29;6.90;99.90
792;DHT22;379;49.022;12.148;2023-02-19T17:11:01;6.90;99.90
792;DHT22;379;49.022;12.148;2023-02-19T17:13:28;6.80;99.90
792;DHT22;379;49.022;12.148;2023-02-19T17:15:55;6.80;99.90
792;DHT22;379;49.022;12.148;2023-02-19T17:18:22;6.70;99.90
792;DHT22;379;49.022;12.148;2023-02-19T17:20:51;6.70;99.90